sensor_id;sensor_type;location;lat;lon;timestamp;temperature;humidity
1538;DHT22;12022;52.266;10.522;2023-04-03T00:01:06;2.20;99.90
1538;DHT22;12022;52.266;10.522;2023-04-03T00:03:33;2.00;99.90
1538;DHT22;12022;52.266;10.522;2023-04-03T00:06:02;2.20;99.90
1538;DHT22;12022;52.266;10.522;2023-04-03T00:08:29;1.90;99.90
1538;DHT22;12022;52.266;10.522;2023-04-03T00:10:59;1.90;99.90
1538;DHT22;12022;52.266;10.522;2023-04-03T00:13:26;2.00;99.90
1538;DHT22;12022;52.266;10.522;2023-04-03T00:15:53;1.90;99.90
1538;DHT22;12022;52.266;10.522;2023-04-03T00:18:21;1.90;99.90
1538;DHT22;12022;52.266;10.522;2023-04-03T00:20:49;1.90;99.90
1538;DHT22;12022;52.266;10.522;2023-04-03T00:23:16;1.80;99.90
1538;DHT22;12022;52.266;10.522;2023-04-03T00:25:43;2.10;99.90
1538;DHT22;12022;52.266;10.522;2023-04-03T00:28:11;2.00;99.90
1538;DHT22;12022;52.266;10.522;2023-04-03T00:30:38;2.00;99.90
1538;DHT22;12022;52.266;10.522;2023-04-03T00:33:05;2.00;99.90
1538;DHT22;12022;52.266;10.522;2023-04-03T00:35:34;1.80;99.90
1538;DHT22;12022;52.266;10.522;2023-04-03T00:38:01;1.80;99.90
1538;DHT22;12022;52.266;10.522;2023-04-03T00:40:34;1.90;99.90
1538;DHT22;12022;52.266;10.522;2023-04-03T00:43:04;1.70;99.90
1538;DHT22;12022;52.266;10.522;2023-04-03T00:45:36;1.60;99.90
1538;DHT22;12022;52.266;10.522;2023-04-03T00:48:05;1.60;99.90
1538;DHT22;12022;52.266;10.522;2023-04-03T00:50:39;1.50;99.90
1538;DHT22;12022;52.266;10.522;2023-04-03T00:53:10;1.60;99.90
1538;DHT22;12022;52.266;10.522;2023-04-03T00:55:39;1.50;99.90
1538;DHT22;12022;52.266;10.522;2023-04-03T00:58:06;1.60;99.90
1538;DHT22;12022;52.266;10.522;2023-04-03T01:00:37;1.50;99.90
1538;DHT22;12022;52.266;10.522;2023-04-03T01:03:05;1.40;99.90
1538;DHT22;12022;52.266;10.522;2023-04-03T01:05:32;1.60;99.90
1538;DHT22;12022;52.266;10.522;2023-04-03T01:08:00;1.60;99.90
1538;DHT22;12022;52.266;10.522;2023-04-03T01:10:27;1.60;99.90
1538;DHT22;12022;52.266;10.522;2023-04-03T01:12:54;1.40;99.90
1538;DHT22;12022;52.266;10.522;2023-04-03T01:15:25;1.30;99.90
1538;DHT22;12022;52.266;10.522;2023-04-03T01:17:58;1.40;99.90
1538;DHT22;12022;52.266;10.522;2023-04-03T01:25:33;1.50;99.90
1538;DHT22;12022;52.266;10.522;2023-04-03T01:28:01;1.50;99.90
1538;DHT22;12022;52.266;10.522;2023-04-03T01:30:32;1.30;99.90
1538;DHT22;12022;52.266;10.522;2023-04-03T01:33:01;1.20;99.90
1538;DHT22;12022;52.266;10.522;2023-04-03T01:35:28;1.40;99.90
1538;DHT22;12022;52.266;10.522;2023-04-03T01:37:56;1.30;99.90
1538;DHT22;12022;52.266;10.522;2023-04-03T01:40:23;1.10;99.90
1538;DHT22;12022;52.266;10.522;2023-04-03T04:36:15;0.50;99.90
1538;DHT22;12022;52.266;10.522;2023-04-03T04:39:22;0.50;99.90
1538;DHT22;12022;52.266;10.522;2023-04-03T04:41:50;0.50;99.90
1538;DHT22;12022;52.266;10.522;2023-04-03T04:44:17;0.50;99.90
1538;DHT22;12022;52.266;10.522;2023-04-03T04:46:43;0.50;99.90
1538;DHT22;12022;52.266;10.522;2023-04-03T04:49:11;0.50;99.90
1538;DHT22;12022;52.266;10.522;2023-04-03T04:51:37;0.50;99.90
1538;DHT22;12022;52.266;10.522;2023-04-03T04:54:17;0.50;99.90
1538;DHT22;12022;52.266;10.522;2023-04-03T04:56:44;0.50;99.90
1538;DHT22;12022;52.266;10.522;2023-04-03T04:59:11;0.50;99.90
1538;DHT22;12022;52.266;10.522;2023-04-03T05:01:38;0.50;99.90
1538;DHT22;12022;52.266;10.522;2023-04-03T05:04:05;0.50;99.90
1538;DHT22;12022;52.266;10.522;2023-04-03T05:06:32;0.50;99.90
1538;DHT22;12022;52.266;10.522;2023-04-03T05:08:59;0.60;99.90
1538;DHT22;12022;52.266;10.522;2023-04-03T05:11:26;0.60;99.90
1538;DHT22;12022;52.266;10.522;2023-04-03T05:13:53;0.60;99.90
1538;DHT22;12022;52.266;10.522;2023-04-03T05:16:20;1.00;99.90
1538;DHT22;12022;52.266;10.522;2023-04-03T05:18:47;0.70;99.90
1538;DHT22;12022;52.266;10.522;2023-04-03T05:21:14;0.60;99.90
1538;DHT22;12022;52.266;10.522;2023-04-03T05:23:41;0.70;99.90
1538;DHT22;12022;52.266;10.522;2023-04-03T05:26:09;0.70;99.90
1538;DHT22;12022;52.266;10.522;2023-04-03T05:28:36;0.70;99.90
1538;DHT22;12022;52.266;10.522;2023-04-03T05:31:03;0.80;99.90
1538;DHT22;12022;52.266;10.522;2023-04-03T05:33:30;0.80;99.90
1538;DHT22;12022;52.266;10.522;2023-04-03T05:36:02;0.80;99.90
1538;DHT22;12022;52.266;10.522;2023-04-03T05:38:32;0.90;99.90
1538;DHT22;12022;52.266;10.522;2023-04-03T05:40:59;0.90;99.90
1538;DHT22;12022;52.266;10.522;2023-04-03T05:43:26;0.90;99.90
1538;DHT22;12022;52.266;10.522;2023-04-03T05:45:53;1.00;99.90
1538;DHT22;12022;52.266;10.522;2023-04-03T05:48:20;1.50;99.90
1538;DHT22;12022;52.266;10.522;2023-04-03T05:50:47;1.10;99.90
1538;DHT22;12022;52.266;10.522;2023-04-03T05:53:19;1.10;99.90
1538;DHT22;12022;52.266;10.522;2023-04-03T05:55:47;1.20;99.90
1538;DHT22;12022;52.266;10.522;2023-04-03T05:58:14;1.30;99.90
1538;DHT22;12022;52.266;10.522;2023-04-03T06:00:41;1.70;99.90
1538;DHT22;12022;52.266;10.522;2023-04-03T06:03:09;2.00;99.90
1538;DHT22;12022;52.266;10.522;2023-04-03T06:05:36;3.10;99.90
1538;DHT22;12022;52.266;10.522;2023-04-03T06:08:03;4.30;99.90
1538;DHT22;12022;52.266;10.522;2023-04-03T06:10:30;5.10;99.90
1538;DHT22;12022;52.266;10.522;2023-04-03T06:12:57;6.30;99.90
1538;DHT22;12022;52.266;10.522;2023-04-03T06:15:24;7.30;99.90
1538;DHT22;12022;52.266;10.522;2023-04-03T06:17:51;8.10;99.90
1538;DHT22;12022;52.266;10.522;2023-04-03T06:20:18;8.50;99.90
1538;DHT22;12022;52.266;10.522;2023-04-03T06:22:45;8.70;99.90
1538;DHT22;12022;52.266;10.522;2023-04-03T06:25:12;9.10;99.90
1538;DHT22;12022;52.266;10.522;2023-04-03T06:27:39;9.80;99.90
1538;DHT22;12022;52.266;10.522;2023-04-03T06:30:07;10.50;98.80
1538;DHT22;12022;52.266;10.522;2023-04-03T06:32:34;11.40;98.40
1538;DHT22;12022;52.266;10.522;2023-04-03T06:35:01;12.10;96.30
1538;DHT22;12022;52.266;10.522;2023-04-03T06:37:28;12.40;95.30
1538;DHT22;12022;52.266;10.522;2023-04-03T06:39:56;12.70;93.80
1538;DHT22;12022;52.266;10.522;2023-04-03T06:42:23;13.10;92.90
1538;DHT22;12022;52.266;10.522;2023-04-03T06:44:51;13.40;91.70
1538;DHT22;12022;52.266;10.522;2023-04-03T06:47:18;14.40;95.50
1538;DHT22;12022;52.266;10.522;2023-04-03T06:49:45;14.50;92.90
1538;DHT22;12022;52.266;10.522;2023-04-03T06:52:15;14.50;90.50
1538;DHT22;12022;52.266;10.522;2023-04-03T06:54:42;14.30;92.60
1538;DHT22;12022;52.266;10.522;2023-04-03T06:57:09;14.50;93.00
1538;DHT22;12022;52.266;10.522;2023-04-03T06:59:36;15.00;93.50
1538;DHT22;12022;52.266;10.522;2023-04-03T07:02:04;15.50;93.40
1538;DHT22;12022;52.266;10.522;2023-04-03T07:04:31;15.60;90.80
1538;DHT22;12022;52.266;10.522;2023-04-03T07:07:03;15.70;85.70
1538;DHT22;12022;52.266;10.522;2023-04-03T07:09:30;15.70;85.60
1538;DHT22;12022;52.266;10.522;2023-04-03T07:11:57;15.60;90.90
1538;DHT22;12022;52.266;10.522;2023-04-03T07:14:24;15.00;90.10
1538;DHT22;12022;52.266;10.522;2023-04-03T07:16:51;13.50;91.50
1538;DHT22;12022;52.266;10.522;2023-04-03T07:19:18;12.50;94.10
1538;DHT22;12022;52.266;10.522;2023-04-03T07:21:45;10.90;94.80
1538;DHT22;12022;52.266;10.522;2023-04-03T07:24:12;9.80;97.70
1538;DHT22;12022;52.266;10.522;2023-04-03T07:26:42;9.30;98.10
1538;DHT22;12022;52.266;10.522;2023-04-03T07:29:10;8.30;99.90
1538;DHT22;12022;52.266;10.522;2023-04-03T07:31:39;7.80;99.90
1538;DHT22;12022;52.266;10.522;2023-04-03T07:34:06;7.40;99.90
1538;DHT22;12022;52.266;10.522;2023-04-03T07:36:33;7.00;99.90
1538;DHT22;12022;52.266;10.522;2023-04-03T07:39:00;6.60;99.90
1538;DHT22;12022;52.266;10.522;2023-04-03T07:41:27;6.40;99.90
1538;DHT22;12022;52.266;10.522;2023-04-03T07:43:55;6.10;99.90
1538;DHT22;12022;52.266;10.522;2023-04-03T07:46:23;5.90;99.90
1538;DHT22;12022;52.266;10.522;2023-04-03T07:48:50;5.80;99.90
1538;DHT22;12022;52.266;10.522;2023-04-03T07:51:17;5.80;99.90
1538;DHT22;12022;52.266;10.522;2023-04-03T07:53:44;6.00;99.90
1538;DHT22;12022;52.266;10.522;2023-04-03T07:56:12;5.70;99.90
1538;DHT22;12022;52.266;10.522;2023-04-03T07:58:38;5.70;99.90
1538;DHT22;12022;52.266;10.522;2023-04-03T08:01:05;5.60;99.90
1538;DHT22;12022;52.266;10.522;2023-04-03T08:03:32;5.60;99.90
1538;DHT22;12022;52.266;10.522;2023-04-03T08:06:05;5.60;99.90
1538;DHT22;12022;52.266;10.522;2023-04-03T08:09:04;5.60;99.90
1538;DHT22;12022;52.266;10.522;2023-04-03T08:11:31;5.90;99.90
1538;DHT22;12022;52.266;10.522;2023-04-03T08:13:58;5.50;99.90
1538;DHT22;12022;52.266;10.522;2023-04-03T08:16:25;5.50;99.90
1538;DHT22;12022;52.266;10.522;2023-04-03T08:18:54;5.80;99.90
1538;DHT22;12022;52.266;10.522;2023-04-03T08:21:21;5.40;99.90
1538;DHT22;12022;52.266;10.522;2023-04-03T08:23:49;5.40;99.90
1538;DHT22;12022;52.266;10.522;2023-04-03T08:26:21;5.40;99.90
1538;DHT22;12022;52.266;10.522;2023-04-03T08:28:48;5.70;99.90
1538;DHT22;12022;52.266;10.522;2023-04-03T08:31:18;5.60;99.90
1538;DHT22;12022;52.266;10.522;2023-04-03T08:33:47;5.50;99.90
1538;DHT22;12022;52.266;10.522;2023-04-03T08:36:23;5.70;99.90
1538;DHT22;12022;52.266;10.522;2023-04-03T08:38:51;5.50;99.90
1538;DHT22;12022;52.266;10.522;2023-04-03T08:49:47;5.50;99.90
1538;DHT22;12022;52.266;10.522;2023-04-03T08:52:21;5.50;99.90
1538;DHT22;12022;52.266;10.522;2023-04-03T08:54:56;5.60;99.90
1538;DHT22;12022;52.266;10.522;2023-04-03T09:00:34;5.50;99.90
1538;DHT22;12022;52.266;10.522;2023-04-03T09:02:56;5.50;99.90
1538;DHT22;12022;52.266;10.522;2023-04-03T09:08:40;5.80;99.90
1538;DHT22;12022;52.266;10.522;2023-04-03T09:10:47;5.90;99.90
1538;DHT22;12022;52.266;10.522;2023-04-03T09:13:43;5.70;99.90
1538;DHT22;12022;52.266;10.522;2023-04-03T09:22:43;6.10;99.90
1538;DHT22;12022;52.266;10.522;2023-04-03T09:24:49;6.00;99.90
1538;DHT22;12022;52.266;10.522;2023-04-03T09:27:17;6.00;99.90
1538;DHT22;12022;52.266;10.522;2023-04-03T09:29:44;6.00;99.90
1538;DHT22;12022;52.266;10.522;2023-04-03T09:32:22;6.10;99.90
1538;DHT22;12022;52.266;10.522;2023-04-03T09:34:53;6.20;99.90
1538;DHT22;12022;52.266;10.522;2023-04-03T09:37:50;6.40;99.90
1538;DHT22;12022;52.266;10.522;2023-04-03T09:40:32;6.70;99.90
1538;DHT22;12022;52.266;10.522;2023-04-03T09:45:46;6.30;99.90
1538;DHT22;12022;52.266;10.522;2023-04-03T09:50:53;6.40;99.90
1538;DHT22;12022;52.266;10.522;2023-04-03T09:55:56;6.60;99.90
1538;DHT22;12022;52.266;10.522;2023-04-03T09:58:35;6.70;99.90
1538;DHT22;12022;52.266;10.522;2023-04-03T10:06:41;6.70;99.90
1538;DHT22;12022;52.266;10.522;2023-04-03T10:09:24;7.10;99.90
1538;DHT22;12022;52.266;10.522;2023-04-03T10:14:29;6.70;99.90
1538;DHT22;12022;52.266;10.522;2023-04-03T10:17:18;6.70;99.90
1538;DHT22;12022;52.266;10.522;2023-04-03T10:23:21;6.60;99.90
1538;DHT22;12022;52.266;10.522;2023-04-03T10:28:32;6.80;99.90
1538;DHT22;12022;52.266;10.522;2023-04-03T10:31:12;6.90;99.90
1538;DHT22;12022;52.266;10.522;2023-04-03T10:34:21;6.90;99.90
1538;DHT22;12022;52.266;10.522;2023-04-03T10:36:57;6.90;99.90
1538;DHT22;12022;52.266;10.522;2023-04-03T10:39:57;6.90;99.90
1538;DHT22;12022;52.266;10.522;2023-04-03T10:45:27;6.70;99.90
1538;DHT22;12022;52.266;10.522;2023-04-03T10:53:11;6.80;99.90
1538;DHT22;12022;52.266;10.522;2023-04-03T10:55:52;6.80;99.90
1538;DHT22;12022;52.266;10.522;2023-04-03T10:58:36;7.00;99.90
1538;DHT22;12022;52.266;10.522;2023-04-03T11:01:14;7.60;99.90
1538;DHT22;12022;52.266;10.522;2023-04-03T11:03:47;7.40;99.90
1538;DHT22;12022;52.266;10.522;2023-04-03T11:06:16;7.90;99.90
1538;DHT22;12022;52.266;10.522;2023-04-03T11:11:20;8.10;99.90
1538;DHT22;12022;52.266;10.522;2023-04-03T11:13:55;8.20;99.90
1538;DHT22;12022;52.266;10.522;2023-04-03T11:16:27;8.20;99.90
1538;DHT22;12022;52.266;10.522;2023-04-03T11:19:11;8.30;99.20
1538;DHT22;12022;52.266;10.522;2023-04-03T11:21:48;7.90;99.90
1538;DHT22;12022;52.266;10.522;2023-04-03T11:24:27;7.90;99.90
1538;DHT22;12022;52.266;10.522;2023-04-03T11:26:57;7.80;99.90
1538;DHT22;12022;52.266;10.522;2023-04-03T11:29:36;7.70;99.90
1538;DHT22;12022;52.266;10.522;2023-04-03T11:34:53;7.50;99.90
1538;DHT22;12022;52.266;10.522;2023-04-03T11:37:40;7.30;99.90
1538;DHT22;12022;52.266;10.522;2023-04-03T11:47:54;7.10;99.90
1538;DHT22;12022;52.266;10.522;2023-04-03T12:13:39;9.00;99.50
1538;DHT22;12022;52.266;10.522;2023-04-03T12:16:07;8.90;99.90
1538;DHT22;12022;52.266;10.522;2023-04-03T12:24:13;8.70;96.80
1538;DHT22;12022;52.266;10.522;2023-04-03T12:43:42;8.60;96.90
1538;DHT22;12022;52.266;10.522;2023-04-03T12:46:22;8.60;97.00
1538;DHT22;12022;52.266;10.522;2023-04-03T12:48:56;8.50;98.50
1538;DHT22;12022;52.266;10.522;2023-04-03T12:51:40;8.50;99.20
1538;DHT22;12022;52.266;10.522;2023-04-03T12:56:45;8.30;97.40
1538;DHT22;12022;52.266;10.522;2023-04-03T12:59:24;8.50;98.60
1538;DHT22;12022;52.266;10.522;2023-04-03T13:02:01;8.50;98.70
1538;DHT22;12022;52.266;10.522;2023-04-03T13:04:31;8.50;98.90
1538;DHT22;12022;52.266;10.522;2023-04-03T13:06:58;9.00;99.40
1538;DHT22;12022;52.266;10.522;2023-04-03T13:12:14;9.00;96.00
1538;DHT22;12022;52.266;10.522;2023-04-03T13:14:53;8.40;95.50
1538;DHT22;12022;52.266;10.522;2023-04-03T13:17:21;8.20;96.80
1538;DHT22;12022;52.266;10.522;2023-04-03T13:19:48;8.10;97.30
1538;DHT22;12022;52.266;10.522;2023-04-03T13:22:36;8.00;96.70
1538;DHT22;12022;52.266;10.522;2023-04-03T13:25:13;8.20;98.00
1538;DHT22;12022;52.266;10.522;2023-04-03T13:27:42;8.40;99.00
1538;DHT22;12022;52.266;10.522;2023-04-03T13:30:27;8.60;98.40
1538;DHT22;12022;52.266;10.522;2023-04-03T13:32:56;8.90;98.90
1538;DHT22;12022;52.266;10.522;2023-04-03T13:37:55;8.90;98.10
1538;DHT22;12022;52.266;10.522;2023-04-03T13:40:22;8.90;97.30
1538;DHT22;12022;52.266;10.522;2023-04-03T13:43:06;8.90;97.90
1538;DHT22;12022;52.266;10.522;2023-04-03T13:45:34;8.70;95.90
1538;DHT22;12022;52.266;10.522;2023-04-03T13:48:17;8.50;96.70
1538;DHT22;12022;52.266;10.522;2023-04-03T13:53:57;8.10;97.30
1538;DHT22;12022;52.266;10.522;2023-04-03T13:56:34;8.00;97.40
1538;DHT22;12022;52.266;10.522;2023-04-03T14:01:57;8.70;98.60
1538;DHT22;12022;52.266;10.522;2023-04-03T14:04:55;8.60;97.30
1538;DHT22;12022;52.266;10.522;2023-04-03T14:07:30;8.80;97.40
1538;DHT22;12022;52.266;10.522;2023-04-03T14:09:58;8.90;98.50
1538;DHT22;12022;52.266;10.522;2023-04-03T14:12:37;9.00;97.30
1538;DHT22;12022;52.266;10.522;2023-04-03T14:15:27;9.00;97.40
1538;DHT22;12022;52.266;10.522;2023-04-03T14:17:54;9.00;98.90
1538;DHT22;12022;52.266;10.522;2023-04-03T14:20:25;9.00;97.60
1538;DHT22;12022;52.266;10.522;2023-04-03T14:22:53;8.90;96.70
1538;DHT22;12022;52.266;10.522;2023-04-03T14:25:21;8.90;97.00
1538;DHT22;12022;52.266;10.522;2023-04-03T14:27:53;8.70;95.50
1538;DHT22;12022;52.266;10.522;2023-04-03T14:30:32;8.50;97.90
1538;DHT22;12022;52.266;10.522;2023-04-03T14:33:00;8.50;97.60
1538;DHT22;12022;52.266;10.522;2023-04-03T14:35:27;8.60;98.50
1538;DHT22;12022;52.266;10.522;2023-04-03T14:37:55;8.80;99.00
1538;DHT22;12022;52.266;10.522;2023-04-03T14:40:25;9.30;98.70
1538;DHT22;12022;52.266;10.522;2023-04-03T14:42:53;9.00;98.30
1538;DHT22;12022;52.266;10.522;2023-04-03T14:45:23;8.90;97.30
1538;DHT22;12022;52.266;10.522;2023-04-03T14:47:52;9.00;96.80
1538;DHT22;12022;52.266;10.522;2023-04-03T14:50:23;8.70;97.70
1538;DHT22;12022;52.266;10.522;2023-04-03T14:52:52;8.80;96.90
1538;DHT22;12022;52.266;10.522;2023-04-03T14:55:23;8.30;97.70
1538;DHT22;12022;52.266;10.522;2023-04-03T14:57:50;8.30;97.50
1538;DHT22;12022;52.266;10.522;2023-04-03T15:00:19;8.30;99.00
1538;DHT22;12022;52.266;10.522;2023-04-03T15:02:47;8.50;99.60
1538;DHT22;12022;52.266;10.522;2023-04-03T15:05:22;9.00;98.40
1538;DHT22;12022;52.266;10.522;2023-04-03T15:07:54;8.90;99.90
1538;DHT22;12022;52.266;10.522;2023-04-03T15:10:25;9.20;98.70
1538;DHT22;12022;52.266;10.522;2023-04-03T15:12:53;9.20;97.20
1538;DHT22;12022;52.266;10.522;2023-04-03T15:15:21;9.20;97.50
1538;DHT22;12022;52.266;10.522;2023-04-03T15:17:54;9.20;98.60
1538;DHT22;12022;52.266;10.522;2023-04-03T15:20:24;9.00;96.50
1538;DHT22;12022;52.266;10.522;2023-04-03T15:22:53;8.80;98.10
1538;DHT22;12022;52.266;10.522;2023-04-03T15:25:20;8.70;96.10
1538;DHT22;12022;52.266;10.522;2023-04-03T15:27:48;8.20;94.10
1538;DHT22;12022;52.266;10.522;2023-04-03T15:30:18;8.20;94.30
1538;DHT22;12022;52.266;10.522;2023-04-03T15:32:46;8.00;96.30
1538;DHT22;12022;52.266;10.522;2023-04-03T15:35:13;8.20;98.60
1538;DHT22;12022;52.266;10.522;2023-04-03T15:37:41;8.10;97.90
1538;DHT22;12022;52.266;10.522;2023-04-03T15:40:08;8.10;97.30
1538;DHT22;12022;52.266;10.522;2023-04-03T15:42:35;8.20;97.70
1538;DHT22;12022;52.266;10.522;2023-04-03T15:45:02;8.20;94.50
1538;DHT22;12022;52.266;10.522;2023-04-03T15:47:29;8.30;97.30
1538;DHT22;12022;52.266;10.522;2023-04-03T15:49:56;8.40;96.30
1538;DHT22;12022;52.266;10.522;2023-04-03T15:52:24;8.20;96.00
1538;DHT22;12022;52.266;10.522;2023-04-03T15:54:51;8.10;96.80
1538;DHT22;12022;52.266;10.522;2023-04-03T15:57:18;8.30;97.60
1538;DHT22;12022;52.266;10.522;2023-04-03T15:59:45;7.90;97.00
1538;DHT22;12022;52.266;10.522;2023-04-03T16:02:12;7.80;96.60
1538;DHT22;12022;52.266;10.522;2023-04-03T16:04:40;7.70;96.90
1538;DHT22;12022;52.266;10.522;2023-04-03T16:07:07;7.60;97.30
1538;DHT22;12022;52.266;10.522;2023-04-03T16:09:35;7.40;94.10
1538;DHT22;12022;52.266;10.522;2023-04-03T16:12:03;7.30;97.70
1538;DHT22;12022;52.266;10.522;2023-04-03T16:14:30;7.40;97.80
1538;DHT22;12022;52.266;10.522;2023-04-03T16:16:58;7.20;98.00
1538;DHT22;12022;52.266;10.522;2023-04-03T16:19:29;7.20;98.80
1538;DHT22;12022;52.266;10.522;2023-04-03T16:21:56;7.20;99.30
1538;DHT22;12022;52.266;10.522;2023-04-03T16:24:23;7.30;98.00
1538;DHT22;12022;52.266;10.522;2023-04-03T16:26:50;7.30;98.30
1538;DHT22;12022;52.266;10.522;2023-04-03T16:29:17;7.50;99.90
1538;DHT22;12022;52.266;10.522;2023-04-03T16:31:47;7.80;97.80
1538;DHT22;12022;52.266;10.522;2023-04-03T16:34:14;7.90;99.20
1538;DHT22;12022;52.266;10.522;2023-04-03T16:36:42;7.80;96.40
1538;DHT22;12022;52.266;10.522;2023-04-03T16:39:09;7.70;96.00
1538;DHT22;12022;52.266;10.522;2023-04-03T16:41:36;7.70;98.20
1538;DHT22;12022;52.266;10.522;2023-04-03T16:44:03;7.70;96.90
1538;DHT22;12022;52.266;10.522;2023-04-03T16:46:30;7.60;95.40
1538;DHT22;12022;52.266;10.522;2023-04-03T16:48:57;7.40;95.50
1538;DHT22;12022;52.266;10.522;2023-04-03T16:51:24;7.40;95.90
1538;DHT22;12022;52.266;10.522;2023-04-03T16:53:52;7.30;97.00
1538;DHT22;12022;52.266;10.522;2023-04-03T16:56:18;7.30;97.50
1538;DHT22;12022;52.266;10.522;2023-04-03T16:58:53;7.20;97.90
1538;DHT22;12022;52.266;10.522;2023-04-03T17:01:23;7.00;97.40
1538;DHT22;12022;52.266;10.522;2023-04-03T17:03:50;7.10;97.60
1538;DHT22;12022;52.266;10.522;2023-04-03T17:06:19;6.90;99.20
1538;DHT22;12022;52.266;10.522;2023-04-03T17:08:51;7.00;99.20
1538;DHT22;12022;52.266;10.522;2023-04-03T17:11:18;7.00;98.60
1538;DHT22;12022;52.266;10.522;2023-04-03T17:13:47;7.30;99.20
1538;DHT22;12022;52.266;10.522;2023-04-03T17:16:15;7.10;99.20
1538;DHT22;12022;52.266;10.522;2023-04-03T17:18:43;7.10;98.70
1538;DHT22;12022;52.266;10.522;2023-04-03T17:21:11;7.00;98.50
1538;DHT22;12022;52.266;10.522;2023-04-03T17:23:39;6.80;99.20
1538;DHT22;12022;52.266;10.522;2023-04-03T17:26:08;6.80;99.90
1538;DHT22;12022;52.266;10.522;2023-04-03T17:28:38;7.00;98.40
1538;DHT22;12022;52.266;10.522;2023-04-03T17:31:22;6.70;98.00
1538;DHT22;12022;52.266;10.522;2023-04-03T17:34:31;6.70;99.50
1538;DHT22;12022;52.266;10.522;2023-04-03T17:36:59;7.00;99.90
1538;DHT22;12022;52.266;10.522;2023-04-03T17:39:26;7.10;99.90
1538;DHT22;12022;52.266;10.522;2023-04-03T17:41:59;7.20;99.90
1538;DHT22;12022;52.266;10.522;2023-04-03T17:44:27;7.00;99.90
1538;DHT22;12022;52.266;10.522;2023-04-03T17:46:54;7.30;99.90
1538;DHT22;12022;52.266;10.522;2023-04-03T17:49:21;6.90;99.90
1538;DHT22;12022;52.266;10.522;2023-04-03T17:51:48;6.80;99.90
1538;DHT22;12022;52.266;10.522;2023-04-03T17:54:15;6.70;99.90
1538;DHT22;12022;52.266;10.522;2023-04-03T17:56:45;6.50;99.90
1538;DHT22;12022;52.266;10.522;2023-04-03T17:59:15;6.40;99.90
1538;DHT22;12022;52.266;10.522;2023-04-03T18:01:44;6.60;99.90
1538;DHT22;12022;52.266;10.522;2023-04-03T18:04:13;6.20;99.90
1538;DHT22;12022;52.266;10.522;2023-04-03T18:06:43;6.10;99.90
1538;DHT22;12022;52.266;10.522;2023-04-03T18:09:19;6.00;99.90
1538;DHT22;12022;52.266;10.522;2023-04-03T18:11:47;5.90;99.90
1538;DHT22;12022;52.266;10.522;2023-04-03T18:14:18;5.80;99.90
1538;DHT22;12022;52.266;10.522;2023-04-03T18:16:45;5.80;99.90
1538;DHT22;12022;52.266;10.522;2023-04-03T18:19:12;5.70;99.90
1538;DHT22;12022;52.266;10.522;2023-04-03T18:21:42;5.90;99.90
1538;DHT22;12022;52.266;10.522;2023-04-03T18:24:13;5.50;99.90
1538;DHT22;12022;52.266;10.522;2023-04-03T18:26:43;5.50;99.90
1538;DHT22;12022;52.266;10.522;2023-04-03T18:29:13;5.40;99.90
1538;DHT22;12022;52.266;10.522;2023-04-03T18:31:46;5.40;99.90
1538;DHT22;12022;52.266;10.522;2023-04-03T18:34:14;5.50;99.90
1538;DHT22;12022;52.266;10.522;2023-04-03T18:36:40;5.30;99.90
1538;DHT22;12022;52.266;10.522;2023-04-03T18:39:08;5.30;99.90
1538;DHT22;12022;52.266;10.522;2023-04-03T18:41:36;5.40;99.90
1538;DHT22;12022;52.266;10.522;2023-04-03T18:44:10;5.40;99.90
1538;DHT22;12022;52.266;10.522;2023-04-03T18:46:38;4.80;99.90
1538;DHT22;12022;52.266;10.522;2023-04-03T18:49:09;5.10;99.90
1538;DHT22;12022;52.266;10.522;2023-04-03T18:51:37;5.10;99.90
1538;DHT22;12022;52.266;10.522;2023-04-03T18:54:06;5.00;99.90
1538;DHT22;12022;52.266;10.522;2023-04-03T18:56:36;5.00;99.90
1538;DHT22;12022;52.266;10.522;2023-04-03T18:59:03;5.00;99.90
1538;DHT22;12022;52.266;10.522;2023-04-03T19:01:32;5.20;99.90
1538;DHT22;12022;52.266;10.522;2023-04-03T19:04:01;5.20;99.90
1538;DHT22;12022;52.266;10.522;2023-04-03T19:06:32;5.10;99.90
1538;DHT22;12022;52.266;10.522;2023-04-03T19:09:01;5.00;99.90
1538;DHT22;12022;52.266;10.522;2023-04-03T19:11:32;5.20;99.90
1538;DHT22;12022;52.266;10.522;2023-04-03T19:14:01;5.00;99.90
1538;DHT22;12022;52.266;10.522;2023-04-03T19:16:42;5.00;99.90
1538;DHT22;12022;52.266;10.522;2023-04-03T19:19:09;5.20;99.90
1538;DHT22;12022;52.266;10.522;2023-04-03T19:21:36;5.00;99.90
1538;DHT22;12022;52.266;10.522;2023-04-03T19:24:12;5.20;99.90
1538;DHT22;12022;52.266;10.522;2023-04-03T19:26:41;5.10;99.90
1538;DHT22;12022;52.266;10.522;2023-04-03T19:29:10;5.00;99.90
1538;DHT22;12022;52.266;10.522;2023-04-03T19:31:38;5.10;99.90
1538;DHT22;12022;52.266;10.522;2023-04-03T19:34:08;5.10;99.90
1538;DHT22;12022;52.266;10.522;2023-04-03T19:36:36;5.10;99.90
1538;DHT22;12022;52.266;10.522;2023-04-03T19:39:04;5.10;99.90
1538;DHT22;12022;52.266;10.522;2023-04-03T19:41:33;5.20;99.90
1538;DHT22;12022;52.266;10.522;2023-04-03T19:44:03;5.20;99.90
1538;DHT22;12022;52.266;10.522;2023-04-03T19:46:30;5.20;99.90
1538;DHT22;12022;52.266;10.522;2023-04-03T19:48:58;4.90;99.90
1538;DHT22;12022;52.266;10.522;2023-04-03T19:51:25;5.10;99.90
1538;DHT22;12022;52.266;10.522;2023-04-03T19:53:52;5.10;99.90
1538;DHT22;12022;52.266;10.522;2023-04-03T19:56:19;5.00;99.90
1538;DHT22;12022;52.266;10.522;2023-04-03T19:58:48;5.00;99.90
1538;DHT22;12022;52.266;10.522;2023-04-03T20:01:23;4.80;99.90
1538;DHT22;12022;52.266;10.522;2023-04-03T20:03:53;4.70;99.90
1538;DHT22;12022;52.266;10.522;2023-04-03T20:06:20;4.90;99.90
1538;DHT22;12022;52.266;10.522;2023-04-03T20:08:47;4.90;99.90
1538;DHT22;12022;52.266;10.522;2023-04-03T20:11:14;4.80;99.90
1538;DHT22;12022;52.266;10.522;2023-04-03T20:13:42;4.50;99.90
1538;DHT22;12022;52.266;10.522;2023-04-03T20:16:09;4.70;99.90
1538;DHT22;12022;52.266;10.522;2023-04-03T20:18:36;4.60;99.90
1538;DHT22;12022;52.266;10.522;2023-04-03T20:21:05;4.80;99.90
1538;DHT22;12022;52.266;10.522;2023-04-03T20:23:33;4.40;99.90
1538;DHT22;12022;52.266;10.522;2023-04-03T20:26:03;4.50;99.90
1538;DHT22;12022;52.266;10.522;2023-04-03T20:28:39;4.50;99.90
1538;DHT22;12022;52.266;10.522;2023-04-03T20:31:06;4.30;99.90
1538;DHT22;12022;52.266;10.522;2023-04-03T20:33:35;4.40;99.90
1538;DHT22;12022;52.266;10.522;2023-04-03T20:36:03;4.30;99.90
1538;DHT22;12022;52.266;10.522;2023-04-03T20:38:30;4.20;99.90
1538;DHT22;12022;52.266;10.522;2023-04-03T20:40:57;4.10;99.90
1538;DHT22;12022;52.266;10.522;2023-04-03T20:43:24;4.10;99.90
1538;DHT22;12022;52.266;10.522;2023-04-03T20:45:51;4.00;99.90
1538;DHT22;12022;52.266;10.522;2023-04-03T20:48:18;4.20;99.90
1538;DHT22;12022;52.266;10.522;2023-04-03T20:50:45;3.90;99.90
1538;DHT22;12022;52.266;10.522;2023-04-03T20:53:13;4.10;99.90
1538;DHT22;12022;52.266;10.522;2023-04-03T20:55:41;3.80;99.90
1538;DHT22;12022;52.266;10.522;2023-04-03T20:58:08;3.80;99.90
1538;DHT22;12022;52.266;10.522;2023-04-03T21:00:35;4.00;99.90
1538;DHT22;12022;52.266;10.522;2023-04-03T21:03:04;3.90;99.90
1538;DHT22;12022;52.266;10.522;2023-04-03T21:05:32;3.90;99.90